createdAt,value
2023-06-07T00:00:59.132Z,63.55
2023-06-07T00:03:46.532Z,64.45
2023-06-07T00:06:33.879Z,63.98
2023-06-07T00:09:21.130Z,64.07
2023-06-07T00:12:08.168Z,63.89
2023-06-07T00:14:55.449Z,63.53
2023-06-07T00:17:42.713Z,64.27
2023-06-07T00:20:30.405Z,63.73
2023-06-07T00:23:17.363Z,64.05
2023-06-07T00:26:05.293Z,63.91
2023-06-07T00:28:52.268Z,64.53
2023-06-07T00:31:39.481Z,63.74
2023-06-07T00:34:26.703Z,64.33
2023-06-07T00:37:13.945Z,64.59
2023-06-07T00:40:01.158Z,64.10
2023-06-07T00:42:48.449Z,64.23
2023-06-07T00:45:35.628Z,64.59
2023-06-07T00:48:23.340Z,64.58
2023-06-07T00:51:10.964Z,64.84
2023-06-07T00:53:58.533Z,64.77
2023-06-07T00:56:45.608Z,64.34
2023-06-07T00:59:33.156Z,64.59
2023-06-07T01:02:20.525Z,64.33
2023-06-07T01:05:07.978Z,64.41
2023-06-07T01:07:55.010Z,64.14
2023-06-07T01:10:42.587Z,64.17
2023-06-07T01:13:30.956Z,64.25
2023-06-07T01:16:19.237Z,64.25
2023-06-07T01:19:07.006Z,64.56
2023-06-07T01:21:58.617Z,64.65
2023-06-07T01:24:45.663Z,64.42
2023-06-07T01:27:32.835Z,64.82
2023-06-07T01:30:20.387Z,64.32
2023-06-07T01:33:09.063Z,64.73
2023-06-07T01:35:56.174Z,64.58
2023-06-07T01:38:44.689Z,64.75
2023-06-07T01:41:32.823Z,64.66
2023-06-07T01:44:20.848Z,64.83
2023-06-07T01:47:08.689Z,65.18
2023-06-07T01:49:55.751Z,64.66
2023-06-07T01:52:42.871Z,64.87
2023-06-07T01:55:30.137Z,65.46
2023-06-07T01:58:23.404Z,64.72
2023-06-07T02:01:26.908Z,64.90
2023-06-07T02:04:15.741Z,64.89
2023-06-07T02:07:05.759Z,65.04
2023-06-07T02:09:55.298Z,65.28
2023-06-07T02:12:43.684Z,65.18
2023-06-07T02:15:31.161Z,64.75
2023-06-07T02:18:20.545Z,64.74
2023-06-07T02:21:31.277Z,64.93
2023-06-07T02:24:18.749Z,64.78
2023-06-07T02:27:05.977Z,64.79
2023-06-07T02:29:53.326Z,64.89
2023-06-07T02:32:40.365Z,65.00
2023-06-07T02:35:29.335Z,64.71
2023-06-07T02:38:16.381Z,64.77
2023-06-07T02:41:03.761Z,64.36
2023-06-07T02:43:50.726Z,63.93
2023-06-07T02:46:37.948Z,64.65
2023-06-07T02:49:25.090Z,64.25
2023-06-07T02:52:13.592Z,64.30
2023-06-07T02:55:00.736Z,64.14
2023-06-07T02:57:48.043Z,64.06
2023-06-07T03:00:37.218Z,64.17
2023-06-07T03:03:30.256Z,63.99
2023-06-07T03:06:26.874Z,63.78
2023-06-07T03:09:14.184Z,63.71
2023-06-07T03:12:01.322Z,63.01
2023-06-07T03:14:55.069Z,63.30
2023-06-07T03:17:43.017Z,63.51
2023-06-07T03:20:31.687Z,63.65
2023-06-07T03:23:24.177Z,63.29
2023-06-07T03:26:11.843Z,63.15
2023-06-07T03:28:59.430Z,63.34
2023-06-07T03:31:50.707Z,62.76
2023-06-07T03:34:39.232Z,62.99
2023-06-07T03:37:26.705Z,62.80
2023-06-07T03:40:13.896Z,63.16
2023-06-07T03:43:01.478Z,63.00
2023-06-07T03:45:49.235Z,62.70
2023-06-07T03:48:37.279Z,63.34
2023-06-07T03:51:24.267Z,62.19
2023-06-07T03:54:11.693Z,62.24
2023-06-07T03:56:58.927Z,62.05
2023-06-07T03:59:46.473Z,62.10
2023-06-07T04:02:33.942Z,61.80
2023-06-07T04:05:21.145Z,61.47
2023-06-07T04:08:08.324Z,61.37
2023-06-07T04:10:55.584Z,61.43
2023-06-07T04:13:42.802Z,61.10
2023-06-07T04:16:30.554Z,60.74
2023-06-07T04:19:17.687Z,60.88
2023-06-07T04:22:06.466Z,60.35
2023-06-07T04:24:55.243Z,60.85
2023-06-07T04:27:42.382Z,60.19
2023-06-07T04:30:30.483Z,60.49
2023-06-07T04:33:17.697Z,60.20
2023-06-07T04:36:08.818Z,59.92
2023-06-07T04:39:01.552Z,59.97
2023-06-07T04:41:51.946Z,59.53
2023-06-07T04:44:39.240Z,59.63
2023-06-07T04:47:32.562Z,59.16
2023-06-07T04:50:19.797Z,59.34
2023-06-07T04:53:06.907Z,59.53
2023-06-07T04:55:56.409Z,58.93
2023-06-07T04:58:43.879Z,58.77
2023-06-07T05:01:34.327Z,58.29
2023-06-07T05:04:23.293Z,58.68
2023-06-07T05:07:15.264Z,58.32
2023-06-07T05:10:07.073Z,57.70
2023-06-07T05:12:54.721Z,58.18
2023-06-07T05:15:41.957Z,58.25
2023-06-07T05:18:29.643Z,57.79
2023-06-07T05:21:18.474Z,57.77
2023-06-07T05:24:06.753Z,57.50
2023-06-07T05:26:53.806Z,57.18
2023-06-07T05:29:41.064Z,57.11
2023-06-07T05:32:28.739Z,56.72
2023-06-07T05:35:15.920Z,56.51
2023-06-07T05:38:06.203Z,56.17
2023-06-07T05:40:53.230Z,56.78
2023-06-07T05:43:40.281Z,56.69
2023-06-07T05:46:27.428Z,56.36
2023-06-07T05:49:15.336Z,56.48
2023-06-07T05:52:02.603Z,56.13
2023-06-07T05:54:49.606Z,56.03
2023-06-07T05:57:36.926Z,55.70
2023-06-07T06:00:30.911Z,55.25
2023-06-07T06:03:18.102Z,55.59
2023-06-07T06:06:05.048Z,55.27
2023-06-07T06:08:52.447Z,55.04
2023-06-07T06:11:39.530Z,54.96
2023-06-07T06:14:26.677Z,54.17
2023-06-07T06:17:13.838Z,54.96
2023-06-07T06:20:01.211Z,53.69
2023-06-07T06:22:48.456Z,53.67
2023-06-07T06:25:35.652Z,53.02
2023-06-07T06:28:22.678Z,53.73
2023-06-07T06:31:09.905Z,53.08
2023-06-07T06:33:56.927Z,53.72
2023-06-07T06:36:44.002Z,52.88
2023-06-07T06:39:30.953Z,52.00
2023-06-07T06:42:18.183Z,52.63
2023-06-07T06:45:24.634Z,52.70
2023-06-07T06:48:11.915Z,52.79
2023-06-07T06:50:58.936Z,51.57
2023-06-07T06:53:46.029Z,51.33
2023-06-07T06:56:33.070Z,51.20
2023-06-07T06:59:20.203Z,51.82
2023-06-07T07:02:08.527Z,51.37
2023-06-07T07:04:55.871Z,51.52
2023-06-07T07:07:43.080Z,51.25
2023-06-07T07:10:30.556Z,51.48
2023-06-07T07:13:19.293Z,51.02
2023-06-07T07:16:06.499Z,51.10
2023-06-07T07:18:53.729Z,50.78
2023-06-07T07:21:40.900Z,49.53
2023-06-07T07:24:28.488Z,49.04
2023-06-07T07:27:15.724Z,49.64
2023-06-07T07:30:03.185Z,49.72
2023-06-07T07:32:50.607Z,48.92
2023-06-07T07:35:37.913Z,47.91
2023-06-07T07:38:25.040Z,49.12
2023-06-07T07:41:12.139Z,49.10
2023-06-07T07:43:59.315Z,48.16
2023-06-07T07:46:46.447Z,49.22
2023-06-07T07:49:35.932Z,48.49
2023-06-07T07:52:24.305Z,47.99
2023-06-07T07:55:11.419Z,49.02
2023-06-07T07:57:58.495Z,48.57
2023-06-07T08:00:45.775Z,49.21
2023-06-07T08:03:33.138Z,48.58
2023-06-07T08:06:20.325Z,47.83
2023-06-07T08:09:07.452Z,48.13
2023-06-07T08:11:54.513Z,47.17
2023-06-07T08:14:41.661Z,47.48
2023-06-07T08:17:28.833Z,46.39
2023-06-07T08:20:16.174Z,47.29
2023-06-07T08:23:03.630Z,47.26
2023-06-07T08:25:50.701Z,46.32
2023-06-07T08:28:39.174Z,46.83
2023-06-07T08:31:26.599Z,46.13
2023-06-07T08:34:13.851Z,45.83
2023-06-07T08:37:00.870Z,46.13
2023-06-07T08:39:47.994Z,45.86
2023-06-07T08:42:35.218Z,46.04
2023-06-07T08:45:24.266Z,45.62
2023-06-07T08:48:12.979Z,45.17
2023-06-07T08:51:00.949Z,45.78
2023-06-07T08:53:50.602Z,44.59
2023-06-07T08:56:39.109Z,43.51
2023-06-07T08:59:27.137Z,44.46
2023-06-07T09:02:15.168Z,44.42
2023-06-07T09:05:03.717Z,44.79
2023-06-07T09:07:52.213Z,44.58
2023-06-07T09:10:40.537Z,43.68
2023-06-07T09:13:29.683Z,44.57
2023-06-07T09:16:16.844Z,43.65
2023-06-07T09:19:16.415Z,44.10
2023-06-07T09:22:03.593Z,43.27
2023-06-07T09:24:51.983Z,43.18
2023-06-07T09:27:49.665Z,42.91
2023-06-07T09:30:36.829Z,43.47
2023-06-07T09:33:24.010Z,43.22
2023-06-07T09:36:25.469Z,43.68
2023-06-07T09:39:12.664Z,42.85
2023-06-07T09:41:59.866Z,43.08
2023-06-07T09:44:51.322Z,42.14
2023-06-07T09:47:43.278Z,42.99
2023-06-07T09:50:32.319Z,42.90
2023-06-07T09:53:20.067Z,42.58
2023-06-07T09:56:07.212Z,41.95
2023-06-07T09:58:54.251Z,41.75
2023-06-07T10:02:01.297Z,40.70
2023-06-07T10:04:48.393Z,40.16
2023-06-07T10:07:36.839Z,39.58
2023-06-07T10:10:26.162Z,39.80
2023-06-07T10:13:14.846Z,39.74
2023-06-07T10:16:06.733Z,39.29
2023-06-07T10:18:56.805Z,38.99
2023-06-07T10:21:45.072Z,39.23
2023-06-07T10:24:38.031Z,38.88
2023-06-07T10:27:33.039Z,38.78
2023-06-07T10:30:30.702Z,38.36
2023-06-07T10:33:19.601Z,38.03
2023-06-07T10:36:07.597Z,37.17
2023-06-07T10:38:55.876Z,36.20
2023-06-07T10:41:43.845Z,37.30
2023-06-07T10:44:32.091Z,37.23
2023-06-07T10:47:44.976Z,36.99
2023-06-07T10:50:47.390Z,37.26
2023-06-07T10:53:34.504Z,36.55
2023-06-07T10:56:56.578Z,36.81
2023-06-07T10:59:44.089Z,35.56
2023-06-07T11:02:41.349Z,36.28
2023-06-07T11:05:30.573Z,36.08
2023-06-07T11:08:43.653Z,35.84
2023-06-07T11:12:01.765Z,36.63
2023-06-07T11:14:48.795Z,35.27
2023-06-07T11:18:16.270Z,35.49
2023-06-07T11:21:06.396Z,35.43
2023-06-07T11:23:54.824Z,35.45
2023-06-07T11:26:42.098Z,35.43
2023-06-07T11:29:29.308Z,34.59
2023-06-07T11:32:21.813Z,34.07
2023-06-07T11:35:17.367Z,34.37
2023-06-07T11:38:04.484Z,33.41
2023-06-07T11:40:51.491Z,33.50
2023-06-07T11:43:45.435Z,33.89
2023-06-07T11:46:34.811Z,33.49
2023-06-07T11:49:28.034Z,33.69
2023-06-07T11:52:20.766Z,33.37
2023-06-07T11:55:07.848Z,32.93
2023-06-07T11:57:55.392Z,33.10
2023-06-07T12:00:44.162Z,33.03
2023-06-07T12:03:32.094Z,33.12
2023-06-07T12:06:19.424Z,32.70
2023-06-07T12:09:11.171Z,32.66
2023-06-07T12:11:58.164Z,32.96
2023-06-07T12:14:53.022Z,32.46
2023-06-07T12:17:40.733Z,31.66
2023-06-07T12:20:29.854Z,31.54
2023-06-07T12:23:26.706Z,31.92
2023-06-07T12:26:32.660Z,32.24
2023-06-07T12:29:22.387Z,31.04
2023-06-07T12:32:09.628Z,31.74
2023-06-07T12:35:03.556Z,31.27
2023-06-07T12:37:54.007Z,31.23
2023-06-07T12:40:41.320Z,31.55
2023-06-07T12:43:28.605Z,31.74
2023-06-07T12:46:15.828Z,31.57
2023-06-07T12:49:03.358Z,31.35
2023-06-07T12:51:50.923Z,31.19
2023-06-07T12:54:38.041Z,30.74
2023-06-07T12:57:25.838Z,30.81
2023-06-07T13:00:13.093Z,31.38
2023-06-07T13:03:00.327Z,31.02
2023-06-07T13:05:47.634Z,30.43
2023-06-07T13:08:34.764Z,29.74
2023-06-07T13:11:22.309Z,30.21
2023-06-07T13:14:09.563Z,29.88
2023-06-07T13:16:56.858Z,29.62
2023-06-07T13:19:44.006Z,30.25
2023-06-07T13:22:32.214Z,30.46
2023-06-07T13:25:19.885Z,30.44
2023-06-07T13:28:06.973Z,30.69
2023-06-07T13:30:54.065Z,30.70
2023-06-07T13:33:41.304Z,30.97
2023-06-07T13:36:28.869Z,31.25
2023-06-07T13:39:16.108Z,31.75
2023-06-07T13:42:03.377Z,31.96
2023-06-07T13:44:50.746Z,31.63
2023-06-07T13:47:38.553Z,31.49
2023-06-07T13:50:26.193Z,31.54
2023-06-07T13:53:13.379Z,31.45
2023-06-07T13:56:00.503Z,31.60
2023-06-07T13:58:47.568Z,31.67
2023-06-07T14:01:34.958Z,32.40
2023-06-07T14:04:22.185Z,31.50
2023-06-07T14:07:11.778Z,32.31
2023-06-07T14:09:58.851Z,31.67
2023-06-07T14:12:45.938Z,32.57
2023-06-07T14:15:33.326Z,32.52
2023-06-07T14:18:20.415Z,33.10
2023-06-07T14:21:07.706Z,33.00
2023-06-07T14:23:54.821Z,33.29
2023-06-07T14:26:42.030Z,32.70
2023-06-07T14:29:29.040Z,33.17
2023-06-07T14:32:16.143Z,33.23
2023-06-07T14:35:03.460Z,33.93
2023-06-07T14:37:50.908Z,33.31
2023-06-07T14:40:38.125Z,33.45
2023-06-07T14:43:25.438Z,33.47
2023-06-07T14:46:12.798Z,33.85
2023-06-07T14:48:59.879Z,33.53
2023-06-07T14:51:49.727Z,33.67
2023-06-07T14:54:37.064Z,33.74
2023-06-07T14:57:24.828Z,33.53
2023-06-07T14:59:52.107Z,34.22
2023-06-07T15:02:19.229Z,34.28
2023-06-07T15:04:46.389Z,33.81
2023-06-07T15:07:15.185Z,34.34
2023-06-07T15:09:42.661Z,36.05
2023-06-07T15:12:11.517Z,37.64
2023-06-07T15:14:38.601Z,38.05
2023-06-07T15:17:07.077Z,38.91
2023-06-07T15:19:34.156Z,39.46
2023-06-07T15:22:01.348Z,39.86
2023-06-07T15:24:28.522Z,40.23
2023-06-07T15:26:55.806Z,40.92
2023-06-07T15:29:23.183Z,40.61
2023-06-07T15:31:50.335Z,40.98
2023-06-07T15:34:17.683Z,41.53
2023-06-07T15:36:44.737Z,41.86
2023-06-07T15:39:11.934Z,42.55
2023-06-07T15:41:39.769Z,42.24
2023-06-07T15:44:07.093Z,42.42
2023-06-07T15:46:35.213Z,43.07
2023-06-07T15:49:03.932Z,43.13
2023-06-07T15:51:31.184Z,42.91
2023-06-07T15:53:58.321Z,42.89
2023-06-07T15:56:26.121Z,43.34
2023-06-07T15:58:53.564Z,43.03
2023-06-07T16:01:21.918Z,43.42
2023-06-07T16:03:56.187Z,43.31
2023-06-07T16:06:23.796Z,42.82
2023-06-07T16:08:51.517Z,42.83
2023-06-07T16:11:18.536Z,43.18
2023-06-07T16:13:45.946Z,43.25
2023-06-07T16:16:13.918Z,42.70
2023-06-07T16:18:41.186Z,43.72
2023-06-07T16:21:08.483Z,43.13
2023-06-07T16:23:55.608Z,44.00
2023-06-07T16:26:43.005Z,44.52
2023-06-07T16:29:30.429Z,43.71
2023-06-07T16:32:17.988Z,43.52
2023-06-07T16:35:05.300Z,43.96
2023-06-07T16:37:52.434Z,43.34
2023-06-07T16:40:39.528Z,43.25
2023-06-07T16:43:26.665Z,43.40
2023-06-07T16:46:13.890Z,44.20
2023-06-07T16:49:01.050Z,43.77
2023-06-07T16:51:48.216Z,44.50
2023-06-07T16:54:35.402Z,43.50
2023-06-07T16:57:22.718Z,44.06
2023-06-07T17:00:09.789Z,43.55
2023-06-07T17:02:57.065Z,43.78
2023-06-07T17:05:44.354Z,44.12
2023-06-07T17:08:31.433Z,43.67
2023-06-07T17:11:18.558Z,44.33
2023-06-07T17:14:05.775Z,43.86
2023-06-07T17:16:53.142Z,44.45
2023-06-07T17:19:40.154Z,44.60
2023-06-07T17:22:27.544Z,44.92
2023-06-07T17:25:15.642Z,44.70
2023-06-07T17:28:02.868Z,44.53
2023-06-07T17:30:50.687Z,44.64
2023-06-07T17:33:39.024Z,44.83
2023-06-07T17:36:28.037Z,44.97
2023-06-07T17:39:15.181Z,44.76
2023-06-07T17:42:02.901Z,45.55
2023-06-07T17:44:50.053Z,44.96
2023-06-07T17:47:37.273Z,45.29
2023-06-07T17:50:37.051Z,46.08
2023-06-07T17:53:28.473Z,45.70
2023-06-07T17:56:15.638Z,45.79
2023-06-07T17:59:02.765Z,46.50
2023-06-07T18:01:50.097Z,46.04
2023-06-07T18:04:37.224Z,46.29
2023-06-07T18:07:25.006Z,46.44
2023-06-07T18:10:12.123Z,47.19
2023-06-07T18:12:59.210Z,47.57
2023-06-07T18:15:46.411Z,47.63
2023-06-07T18:18:33.698Z,47.76
2023-06-07T18:21:21.244Z,48.12
2023-06-07T18:24:08.325Z,48.55
2023-06-07T18:26:55.421Z,48.77
2023-06-07T18:29:43.774Z,48.43
2023-06-07T18:32:30.844Z,49.00
2023-06-07T18:35:18.292Z,49.33
2023-06-07T18:38:05.432Z,49.04
2023-06-07T18:40:52.793Z,49.36
2023-06-07T18:43:40.930Z,49.28
2023-06-07T18:46:28.540Z,49.60
2023-06-07T18:49:15.837Z,49.68
2023-06-07T18:52:03.361Z,49.76
2023-06-07T18:54:50.507Z,50.06
2023-06-07T18:57:37.980Z,50.22
2023-06-07T19:00:26.165Z,50.58
2023-06-07T19:03:14.653Z,50.69
2023-06-07T19:06:01.792Z,51.17
2023-06-07T19:08:51.843Z,51.02
2023-06-07T19:11:39.014Z,51.59
2023-06-07T19:14:26.119Z,51.92
2023-06-07T19:17:13.181Z,52.46
2023-06-07T19:20:00.655Z,52.40
2023-06-07T19:22:47.942Z,52.80
2023-06-07T19:25:35.497Z,53.00
2023-06-07T19:28:22.524Z,53.09
2023-06-07T19:31:09.725Z,53.11
2023-06-07T19:33:56.758Z,53.52
2023-06-07T19:36:43.888Z,53.77
2023-06-07T19:39:30.930Z,54.06
2023-06-07T19:42:24.706Z,54.01
2023-06-07T19:45:11.767Z,54.27
2023-06-07T19:47:59.020Z,54.41
2023-06-07T19:50:46.161Z,54.91
2023-06-07T19:53:33.476Z,54.88
2023-06-07T19:56:20.709Z,55.94
2023-06-07T19:59:08.005Z,56.12
2023-06-07T20:01:55.586Z,55.83
2023-06-07T20:04:42.899Z,56.59
2023-06-07T20:07:30.069Z,56.36
2023-06-07T20:10:17.231Z,56.49
2023-06-07T20:13:04.202Z,56.46
2023-06-07T20:15:51.370Z,56.94
2023-06-07T20:18:38.318Z,56.86
2023-06-07T20:21:25.480Z,57.02
2023-06-07T20:24:12.462Z,56.73
2023-06-07T20:27:00.469Z,56.79
2023-06-07T20:29:47.533Z,57.69
2023-06-07T20:32:35.043Z,57.18
2023-06-07T20:35:22.162Z,56.94
2023-06-07T20:38:09.483Z,57.47
2023-06-07T20:40:56.445Z,57.99
2023-06-07T20:43:43.793Z,58.39
2023-06-07T20:46:30.817Z,58.38
2023-06-07T20:49:18.150Z,57.71
2023-06-07T20:52:05.091Z,58.35
2023-06-07T20:54:52.317Z,58.36
2023-06-07T20:57:39.359Z,58.50
2023-06-07T21:00:27.218Z,58.14
2023-06-07T21:03:14.327Z,58.15
2023-06-07T21:06:01.756Z,59.10
2023-06-07T21:08:48.825Z,59.01
2023-06-07T21:11:36.493Z,59.06
2023-06-07T21:14:23.501Z,58.91
2023-06-07T21:17:10.760Z,59.34
2023-06-07T21:19:58.147Z,58.42
2023-06-07T21:22:45.272Z,58.58
2023-06-07T21:25:32.416Z,59.38
2023-06-07T21:28:19.601Z,60.22
2023-06-07T21:31:06.752Z,59.29
2023-06-07T21:33:54.007Z,59.11
2023-06-07T21:36:41.230Z,60.11
2023-06-07T21:39:28.322Z,60.47
2023-06-07T21:42:15.439Z,60.90
2023-06-07T21:45:02.926Z,60.55
2023-06-07T21:47:50.451Z,60.77
2023-06-07T21:50:37.791Z,60.19
2023-06-07T21:53:25.054Z,60.68
2023-06-07T21:56:12.213Z,60.84
2023-06-07T21:58:59.239Z,59.92
2023-06-07T22:01:46.858Z,59.56
2023-06-07T22:04:34.246Z,59.62
2023-06-07T22:07:22.111Z,59.93
2023-06-07T22:10:09.434Z,59.97
2023-06-07T22:12:56.692Z,59.40
2023-06-07T22:15:43.818Z,59.72
2023-06-07T22:18:31.000Z,59.78
2023-06-07T22:21:18.771Z,59.66
2023-06-07T22:24:05.987Z,59.81
2023-06-07T22:26:53.134Z,59.86
2023-06-07T22:29:40.712Z,60.22
2023-06-07T22:32:30.776Z,60.50
2023-06-07T22:35:18.231Z,60.27
2023-06-07T22:38:05.417Z,60.08
2023-06-07T22:40:56.684Z,60.54
2023-06-07T22:43:43.964Z,60.85
2023-06-07T22:46:31.169Z,59.49
2023-06-07T22:49:19.626Z,59.03
2023-06-07T22:52:06.807Z,58.92
2023-06-07T22:54:53.968Z,58.60
2023-06-07T22:57:41.141Z,57.73
2023-06-07T23:00:28.924Z,57.94
2023-06-07T23:03:16.775Z,57.42
2023-06-07T23:06:03.995Z,56.91
2023-06-07T23:08:51.176Z,56.81
2023-06-07T23:11:38.308Z,57.20
2023-06-07T23:14:26.152Z,56.28
2023-06-07T23:17:13.335Z,56.63
2023-06-07T23:20:00.438Z,55.72
2023-06-07T23:22:47.660Z,56.01
2023-06-07T23:25:34.886Z,55.40
2023-06-07T23:28:21.994Z,55.68
2023-06-07T23:31:09.509Z,55.45
2023-06-07T23:33:56.542Z,55.42
2023-06-07T23:36:43.866Z,55.59
2023-06-07T23:39:31.122Z,55.81
2023-06-07T23:42:18.213Z,54.79
2023-06-07T23:45:05.508Z,55.53
2023-06-07T23:47:53.358Z,54.97
2023-06-07T23:50:40.762Z,54.72
2023-06-07T23:53:27.995Z,55.31
2023-06-07T23:56:15.228Z,55.11
2023-06-07T23:59:02.475Z,54.87
